Time;durP1;ratioP1;P1;durP2;ratioP2;P2;SDS_P1;SDS_P2;PMS_P1;PMS_P2;Temp;Humidity;BMP_temperature;BMP_pressure;BME280_temperature;BME280_humidity;BME280_pressure;Samples;Min_cycle;Max_cycle;Signal;HPM_P1;HPM_P2
2023/10/18 00:01:26;;;;;;;45.53;23.13;;;;;;;;;;5020748;28;20237;-71
2023/10/18 00:03:56;;;;;;;47.63;24.67;;;;;;;;;;5019495;28;20559;-71
2023/10/18 00:06:23;;;;;;;48.07;24.20;;;;;;;;;;5030399;28;20191;-71
2023/10/18 00:08:49;;;;;;;52.30;22.97;;;;;;;;;;5005260;28;20182;-72
2023/10/18 00:11:15;;;;;;;46.33;22.27;;;;;;;;;;5017347;28;20186;-70
2023/10/18 00:13:42;;;;;;;51.73;24.00;;;;;;;;;;5023962;28;20261;-71
2023/10/18 00:16:08;;;;;;;48.17;24.90;;;;;;;;;;5007140;28;20203;-71
2023/10/18 00:18:34;;;;;;;48.90;23.53;;;;;;;;;;4998287;28;20194;-71
2023/10/18 00:21:04;;;;;;;54.63;25.27;;;;;;;;;;4994064;28;20195;-71
2023/10/18 00:23:33;;;;;;;50.23;24.40;;;;;;;;;;4978330;28;20232;-71
2023/10/18 00:26:09;;;;;;;55.10;25.90;;;;;;;;;;4999804;28;20652;-71
2023/10/18 00:28:38;;;;;;;49.67;24.43;;;;;;;;;;4999749;28;20192;-71
2023/10/18 00:31:19;;;;;;;53.47;25.17;;;;;;;;;;5015647;28;20266;-71
2023/10/18 00:33:45;;;;;;;55.53;26.40;;;;;;;;;;5011235;28;20209;-71
2023/10/18 00:36:11;;;;;;;53.90;25.40;;;;;;;;;;5025692;28;20192;-72
2023/10/18 00:38:39;;;;;;;55.10;27.20;;;;;;;;;;5027687;28;20273;-72
2023/10/18 00:41:08;;;;;;;61.17;27.10;;;;;;;;;;4996049;28;20195;-71
2023/10/18 00:43:33;;;;;;;53.63;26.17;;;;;;;;;;4977714;28;20190;-72
2023/10/18 00:45:59;;;;;;;54.53;25.07;;;;;;;;;;4995671;28;20512;-71
2023/10/18 00:48:27;;;;;;;53.63;25.30;;;;;;;;;;4991742;28;20179;-71
2023/10/18 00:50:55;;;;;;;57.27;26.10;;;;;;;;;;5001037;28;20214;-71
2023/10/18 00:53:22;;;;;;;66.53;27.13;;;;;;;;;;5011718;28;20265;-71
2023/10/18 00:55:52;;;;;;;56.13;26.80;;;;;;;;;;5000385;28;20205;-71
2023/10/18 00:58:21;;;;;;;60.97;26.93;;;;;;;;;;5011388;28;20186;-71
2023/10/18 01:00:48;;;;;;;59.37;26.43;;;;;;;;;;4967266;28;20196;-72
2023/10/18 01:03:28;;;;;;;70.90;29.27;;;;;;;;;;4967954;28;20285;-71
2023/10/18 01:06:17;;;;;;;63.47;28.77;;;;;;;;;;4984397;28;20271;-71
2023/10/18 01:08:46;;;;;;;63.60;27.27;;;;;;;;;;4962169;28;20277;-71
2023/10/18 01:11:12;;;;;;;61.33;28.67;;;;;;;;;;4985516;28;20202;-71
2023/10/18 01:13:42;;;;;;;70.97;28.67;;;;;;;;;;4971441;28;20259;-72
2023/10/18 01:16:20;;;;;;;65.23;29.27;;;;;;;;;;4962591;28;20196;-73
2023/10/18 01:18:47;;;;;;;62.93;28.17;;;;;;;;;;4965489;28;20192;-72
2023/10/18 01:21:19;;;;;;;69.93;31.90;;;;;;;;;;4976376;28;20652;-71
2023/10/18 01:23:53;;;;;;;75.97;30.03;;;;;;;;;;4975778;28;20212;-71
2023/10/18 01:26:21;;;;;;;70.80;30.03;;;;;;;;;;4971757;28;20184;-72
2023/10/18 01:28:47;;;;;;;74.53;29.80;;;;;;;;;;4965678;28;20237;-72
2023/10/18 01:31:12;;;;;;;69.00;30.50;;;;;;;;;;4978944;28;20184;-72
2023/10/18 01:33:45;;;;;;;68.43;28.67;;;;;;;;;;4976808;28;21105;-71
2023/10/18 01:36:15;;;;;;;69.80;29.53;;;;;;;;;;4974390;28;20197;-71
2023/10/18 01:38:42;;;;;;;70.63;30.53;;;;;;;;;;4984321;28;20187;-71
2023/10/18 01:41:25;;;;;;;68.30;29.57;;;;;;;;;;4975444;28;20576;-71
2023/10/18 01:43:51;;;;;;;68.77;29.77;;;;;;;;;;4967680;28;20183;-70
2023/10/18 01:46:17;;;;;;;73.00;29.27;;;;;;;;;;4980041;28;20504;-71
2023/10/18 01:48:48;;;;;;;69.17;30.30;;;;;;;;;;4968194;28;20729;-71
2023/10/18 01:51:14;;;;;;;67.67;29.47;;;;;;;;;;4970987;28;20269;-71
2023/10/18 01:53:41;;;;;;;76.20;32.27;;;;;;;;;;4980440;28;20248;-72
2023/10/18 01:56:07;;;;;;;70.37;31.13;;;;;;;;;;4985999;28;20553;-71
2023/10/18 01:58:35;;;;;;;74.53;30.87;;;;;;;;;;4981356;28;20189;-71
2023/10/18 02:01:02;;;;;;;76.20;30.87;;;;;;;;;;4993504;28;20210;-71
2023/10/18 02:03:28;;;;;;;76.50;30.87;;;;;;;;;;5017299;28;20213;-72
2023/10/18 02:05:54;;;;;;;71.03;29.60;;;;;;;;;;5009867;28;20206;-72
2023/10/18 02:08:20;;;;;;;76.50;30.33;;;;;;;;;;5012134;28;20182;-71
2023/10/18 02:10:46;;;;;;;73.97;30.17;;;;;;;;;;5010410;28;20183;-72
2023/10/18 02:13:13;;;;;;;75.10;30.43;;;;;;;;;;4997908;28;20236;-71
2023/10/18 02:15:40;;;;;;;73.30;31.53;;;;;;;;;;5019789;28;20194;-71
2023/10/18 02:18:07;;;;;;;73.57;31.30;;;;;;;;;;5025373;28;20190;-71
2023/10/18 02:20:35;;;;;;;74.20;31.73;;;;;;;;;;5017915;28;20208;-71
2023/10/18 02:23:01;;;;;;;74.30;31.40;;;;;;;;;;5020248;28;20661;-72
2023/10/18 02:25:43;;;;;;;72.90;32.43;;;;;;;;;;5013133;28;20244;-72
2023/10/18 02:28:23;;;;;;;71.37;30.30;;;;;;;;;;5014869;28;20201;-71
2023/10/18 02:31:13;;;;;;;65.17;29.60;;;;;;;;;;4993487;28;20724;-71
2023/10/18 02:34:03;;;;;;;78.53;31.60;;;;;;;;;;4997967;28;20217;-70
2023/10/18 02:36:32;;;;;;;76.07;29.80;;;;;;;;;;5030307;28;20206;-72
2023/10/18 02:38:58;;;;;;;76.97;31.73;;;;;;;;;;5015613;28;20184;-71
2023/10/18 02:41:29;;;;;;;77.40;31.13;;;;;;;;;;4996199;28;20186;-71
2023/10/18 02:43:58;;;;;;;74.10;29.87;;;;;;;;;;5016989;28;20274;-71
2023/10/18 02:46:24;;;;;;;74.43;30.77;;;;;;;;;;5011848;28;20226;-71
2023/10/18 02:48:53;;;;;;;72.53;31.50;;;;;;;;;;5004947;28;20668;-71
2023/10/18 02:51:24;;;;;;;75.60;32.33;;;;;;;;;;5008318;28;20218;-71
2023/10/18 02:53:51;;;;;;;71.10;29.73;;;;;;;;;;5017371;28;20202;-70
2023/10/18 02:56:17;;;;;;;72.77;31.07;;;;;;;;;;5017437;28;20775;-71
2023/10/18 02:58:44;;;;;;;82.33;32.33;;;;;;;;;;4995024;28;20333;-71
2023/10/18 03:01:10;;;;;;;78.77;30.63;;;;;;;;;;5008159;28;20203;-71
2023/10/18 03:03:35;;;;;;;76.80;31.67;;;;;;;;;;5003075;28;20186;-72
2023/10/18 03:06:06;;;;;;;78.73;32.17;;;;;;;;;;5025829;28;20557;-73
2023/10/18 03:08:32;;;;;;;76.17;31.30;;;;;;;;;;5017884;28;20189;-71
2023/10/18 03:11:00;;;;;;;84.43;33.43;;;;;;;;;;5025686;28;20183;-71
2023/10/18 03:13:26;;;;;;;73.03;32.07;;;;;;;;;;5027049;28;20574;-70
2023/10/18 03:16:05;;;;;;;71.90;30.80;;;;;;;;;;4999623;28;20190;-71
2023/10/18 03:18:34;;;;;;;77.83;31.67;;;;;;;;;;5004870;28;20192;-71
2023/10/18 03:21:04;;;;;;;82.07;33.13;;;;;;;;;;5029836;28;20185;-71
2023/10/18 03:23:31;;;;;;;74.33;31.83;;;;;;;;;;5027763;28;20178;-71
2023/10/18 03:25:59;;;;;;;74.97;31.67;;;;;;;;;;5030649;28;20189;-71
2023/10/18 03:28:33;;;;;;;77.13;32.67;;;;;;;;;;5014125;28;20196;-71
2023/10/18 03:31:12;;;;;;;73.97;31.20;;;;;;;;;;5020129;28;20206;-71
2023/10/18 03:33:37;;;;;;;78.23;32.07;;;;;;;;;;4996030;28;20228;-72
2023/10/18 03:36:20;;;;;;;81.40;33.13;;;;;;;;;;4987961;28;20275;-72
2023/10/18 03:39:00;;;;;;;78.70;31.33;;;;;;;;;;5024519;28;20191;-71
2023/10/18 03:41:25;;;;;;;71.03;31.17;;;;;;;;;;5014081;28;20248;-71
2023/10/18 03:44:03;;;;;;;75.57;30.37;;;;;;;;;;5000235;28;20183;-71
2023/10/18 03:46:29;;;;;;;75.50;30.80;;;;;;;;;;5012680;28;20205;-71
2023/10/18 03:48:56;;;;;;;70.53;31.50;;;;;;;;;;5027483;28;20607;-70
2023/10/18 03:51:24;;;;;;;75.40;31.43;;;;;;;;;;4968436;28;20190;-73
2023/10/18 03:53:53;;;;;;;76.33;30.07;;;;;;;;;;5005658;28;20211;-73
2023/10/18 03:56:20;;;;;;;76.37;30.63;;;;;;;;;;5013323;28;20213;-73
2023/10/18 03:58:53;;;;;;;66.23;29.13;;;;;;;;;;5026079;28;20719;-73
2023/10/18 04:01:21;;;;;;;72.83;30.77;;;;;;;;;;5026380;28;20712;-73
2023/10/18 04:03:49;;;;;;;74.37;32.20;;;;;;;;;;4997408;28;20197;-73
2023/10/18 04:06:21;;;;;;;64.33;29.17;;;;;;;;;;5029201;28;20178;-73
2023/10/18 04:08:47;;;;;;;65.33;30.40;;;;;;;;;;5013767;28;20190;-72
2023/10/18 04:11:13;;;;;;;69.37;31.07;;;;;;;;;;4994339;28;20238;-72
2023/10/18 04:13:39;;;;;;;67.90;30.40;;;;;;;;;;5007930;28;20207;-74
2023/10/18 04:16:10;;;;;;;69.60;31.10;;;;;;;;;;4997422;28;20288;-72
2023/10/18 04:18:36;;;;;;;72.90;31.73;;;;;;;;;;5009435;28;20685;-72
2023/10/18 04:21:14;;;;;;;68.20;28.33;;;;;;;;;;5010677;28;20189;-72
2023/10/18 04:23:45;;;;;;;70.27;30.30;;;;;;;;;;5006964;28;20276;-72
2023/10/18 04:26:18;;;;;;;64.00;28.77;;;;;;;;;;4968058;28;20194;-71
2023/10/18 04:28:45;;;;;;;69.47;30.00;;;;;;;;;;5009205;28;20195;-72
2023/10/18 04:31:12;;;;;;;70.10;31.00;;;;;;;;;;5011661;28;20238;-72
2023/10/18 04:33:41;;;;;;;74.67;31.00;;;;;;;;;;5007572;28;20195;-72
2023/10/18 04:36:14;;;;;;;71.00;30.20;;;;;;;;;;4995624;28;20895;-71
2023/10/18 04:38:44;;;;;;;68.07;29.73;;;;;;;;;;5005496;28;20201;-71
2023/10/18 04:41:23;;;;;;;67.40;29.93;;;;;;;;;;5008680;28;20242;-71
2023/10/18 04:46:35;;;;;;;80.83;32.10;;;;;;;;;;5006748;28;20180;-72
2023/10/18 04:49:16;;;;;;;65.10;29.60;;;;;;;;;;4976687;28;20614;-72
2023/10/18 04:54:10;;;;;;;68.33;30.57;;;;;;;;;;5004830;28;20312;-72
2023/10/18 04:56:39;;;;;;;68.63;30.57;;;;;;;;;;5013133;28;20550;-72
2023/10/18 04:59:11;;;;;;;64.40;29.43;;;;;;;;;;5024079;28;20226;-72
2023/10/18 05:04:24;;;;;;;63.60;28.07;;;;;;;;;;5010756;28;20190;-72
2023/10/18 05:06:58;;;;;;;66.67;28.63;;;;;;;;;;5005867;28;20204;-72
2023/10/18 05:09:49;;;;;;;71.77;29.43;;;;;;;;;;5002187;28;20193;-72
2023/10/18 05:14:53;;;;;;;68.47;29.00;;;;;;;;;;5009742;28;20202;-72
2023/10/18 05:17:21;;;;;;;74.13;29.07;;;;;;;;;;4982727;28;20196;-72
2023/10/18 05:19:48;;;;;;;68.13;30.13;;;;;;;;;;5003935;28;20184;-72
2023/10/18 05:22:19;;;;;;;66.67;29.90;;;;;;;;;;4989528;28;20218;-72
2023/10/18 05:24:55;;;;;;;62.57;30.00;;;;;;;;;;4989369;28;20508;-72
2023/10/18 05:27:26;;;;;;;67.47;30.43;;;;;;;;;;4990206;28;20238;-72
2023/10/18 05:29:59;;;;;;;68.10;31.90;;;;;;;;;;4996839;28;20201;-72
2023/10/18 05:32:37;;;;;;;64.63;28.53;;;;;;;;;;4989787;28;20336;-71
2023/10/18 05:35:19;;;;;;;71.60;30.67;;;;;;;;;;4997689;28;20200;-71
2023/10/18 05:37:50;;;;;;;68.30;29.60;;;;;;;;;;5005497;28;20562;-71
2023/10/18 05:43:03;;;;;;;65.93;29.67;;;;;;;;;;4987806;28;20199;-71
2023/10/18 05:45:31;;;;;;;63.57;29.07;;;;;;;;;;4988446;28;20271;-71
2023/10/18 05:47:58;;;;;;;65.87;31.13;;;;;;;;;;4992313;28;20195;-72
2023/10/18 05:50:24;;;;;;;72.23;31.17;;;;;;;;;;4988009;28;20204;-72
2023/10/18 05:52:57;;;;;;;74.37;31.10;;;;;;;;;;4989440;28;20684;-72
2023/10/18 05:55:23;;;;;;;63.03;28.87;;;;;;;;;;4991703;28;20192;-72
2023/10/18 05:57:50;;;;;;;63.80;29.40;;;;;;;;;;4994552;28;20194;-72
2023/10/18 06:00:17;;;;;;;65.17;29.17;;;;;;;;;;4999538;28;20303;-72
2023/10/18 06:02:45;;;;;;;60.00;29.17;;;;;;;;;;5007066;28;20562;-72
2023/10/18 06:05:11;;;;;;;64.70;27.87;;;;;;;;;;4990129;28;20193;-71
2023/10/18 06:07:36;;;;;;;62.80;29.07;;;;;;;;;;5003442;28;20191;-71
2023/10/18 06:10:13;;;;;;;62.67;29.70;;;;;;;;;;4997933;28;20207;-72
2023/10/18 06:12:41;;;;;;;66.10;31.13;;;;;;;;;;5010682;28;20194;-73
2023/10/18 06:15:13;;;;;;;72.37;30.03;;;;;;;;;;5002824;28;20673;-72
2023/10/18 06:20:27;;;;;;;62.17;28.50;;;;;;;;;;5021663;28;20283;-72
2023/10/18 06:23:08;;;;;;;65.77;29.70;;;;;;;;;;5019319;28;20217;-72
2023/10/18 06:25:44;;;;;;;67.60;29.70;;;;;;;;;;5004829;28;20190;-71
2023/10/18 06:28:10;;;;;;;59.10;28.60;;;;;;;;;;5003595;28;20198;-71
2023/10/18 06:30:42;;;;;;;62.23;28.30;;;;;;;;;;4992851;28;20538;-71
2023/10/18 06:33:12;;;;;;;62.13;27.83;;;;;;;;;;5013773;28;20206;-71
2023/10/18 06:35:42;;;;;;;61.83;29.57;;;;;;;;;;5015010;28;20281;-71
2023/10/18 06:38:10;;;;;;;60.07;28.77;;;;;;;;;;5006913;28;20226;-70
2023/10/18 06:40:59;;;;;;;64.93;30.57;;;;;;;;;;5016744;28;20230;-72
2023/10/18 06:43:25;;;;;;;61.90;29.00;;;;;;;;;;5005463;28;20744;-72
2023/10/18 06:45:53;;;;;;;58.10;29.77;;;;;;;;;;5008179;28;20190;-72
2023/10/18 06:48:19;;;;;;;57.43;27.90;;;;;;;;;;5011256;28;20284;-72
2023/10/18 06:50:48;;;;;;;60.80;29.37;;;;;;;;;;5006860;28;20638;-72
2023/10/18 06:53:15;;;;;;;54.13;28.70;;;;;;;;;;4999072;28;20207;-71
2023/10/18 06:55:44;;;;;;;63.33;29.07;;;;;;;;;;5010824;28;20186;-72
2023/10/18 06:58:52;;;;;;;56.30;27.47;;;;;;;;;;5011328;28;20191;-72
2023/10/18 07:01:13;;;;;;;58.30;28.40;;;;;;;;;;4994021;28;20217;-72
2023/10/18 07:03:42;;;;;;;53.60;28.07;;;;;;;;;;4991232;28;20669;-71
2023/10/18 07:06:16;;;;;;;52.03;27.27;;;;;;;;;;5014560;28;20236;-72
2023/10/18 07:08:44;;;;;;;57.30;27.20;;;;;;;;;;4991564;28;20197;-71
2023/10/18 07:11:16;;;;;;;59.30;28.07;;;;;;;;;;4992176;28;20251;-71
2023/10/18 07:13:46;;;;;;;53.87;26.90;;;;;;;;;;5007020;28;20752;-73
2023/10/18 07:16:14;;;;;;;51.63;26.57;;;;;;;;;;5005650;28;20195;-73
2023/10/18 07:18:39;;;;;;;55.47;26.67;;;;;;;;;;4990560;28;20191;-73
2023/10/18 07:21:09;;;;;;;51.27;26.00;;;;;;;;;;5009315;28;20209;-73
2023/10/18 07:23:39;;;;;;;51.30;26.43;;;;;;;;;;4986362;28;20210;-72
2023/10/18 07:26:13;;;;;;;46.17;25.87;;;;;;;;;;5001315;28;20305;-73
2023/10/18 07:28:40;;;;;;;51.50;25.83;;;;;;;;;;5009938;28;20572;-72
2023/10/18 07:31:10;;;;;;;49.43;25.53;;;;;;;;;;4977505;28;20193;-71
2023/10/18 07:33:42;;;;;;;47.83;25.07;;;;;;;;;;4994793;28;20199;-72
2023/10/18 07:36:09;;;;;;;46.73;23.77;;;;;;;;;;5005517;28;20191;-71
2023/10/18 07:38:37;;;;;;;42.77;24.80;;;;;;;;;;5014903;28;20190;-72
2023/10/18 07:41:04;;;;;;;42.60;24.63;;;;;;;;;;4991747;28;20199;-72
2023/10/18 07:43:32;;;;;;;42.27;24.43;;;;;;;;;;4988889;28;20273;-71
2023/10/18 07:45:58;;;;;;;42.00;24.07;;;;;;;;;;5008584;28;20184;-73
2023/10/18 07:48:24;;;;;;;38.83;23.00;;;;;;;;;;5021019;28;20547;-72
2023/10/18 07:50:50;;;;;;;36.97;23.07;;;;;;;;;;5005663;28;20195;-72
2023/10/18 07:53:20;;;;;;;40.07;23.23;;;;;;;;;;4994822;28;20229;-72
2023/10/18 07:55:57;;;;;;;35.27;22.43;;;;;;;;;;4992187;28;20188;-71
2023/10/18 07:58:24;;;;;;;35.57;20.93;;;;;;;;;;4991506;28;20195;-72
2023/10/18 08:03:31;;;;;;;36.53;20.90;;;;;;;;;;5018813;28;20179;-72
2023/10/18 08:05:58;;;;;;;33.67;20.70;;;;;;;;;;4996697;28;20175;-70
2023/10/18 08:08:26;;;;;;;31.80;20.97;;;;;;;;;;5020387;28;20265;-72
2023/10/18 08:10:56;;;;;;;35.50;21.20;;;;;;;;;;5014548;28;20198;-73
2023/10/18 08:13:31;;;;;;;33.63;19.77;;;;;;;;;;5031342;28;20205;-73
2023/10/18 08:15:58;;;;;;;34.13;21.20;;;;;;;;;;5004692;28;20185;-71
2023/10/18 08:18:42;;;;;;;32.53;20.73;;;;;;;;;;5023437;28;20270;-71
2023/10/18 08:21:08;;;;;;;30.70;20.23;;;;;;;;;;5018027;28;20190;-72
2023/10/18 08:26:05;;;;;;;32.33;20.40;;;;;;;;;;4992953;28;20668;-72
2023/10/18 08:28:38;;;;;;;30.08;19.20;;;;;;;;;;4993715;28;20195;-71
2023/10/18 08:31:35;;;;;;;30.63;19.10;;;;;;;;;;4998358;28;20568;-71
2023/10/18 08:34:15;;;;;;;28.55;18.60;;;;;;;;;;5019308;28;20195;-72
2023/10/18 08:36:43;;;;;;;30.30;18.90;;;;;;;;;;4981729;28;20629;-73
2023/10/18 08:39:09;;;;;;;29.45;18.35;;;;;;;;;;5007566;28;20189;-71
2023/10/18 08:41:37;;;;;;;27.43;17.47;;;;;;;;;;5027404;28;20254;-71
2023/10/18 08:44:22;;;;;;;32.90;18.25;;;;;;;;;;4991248;28;20709;-71
2023/10/18 08:47:03;;;;;;;25.45;17.33;;;;;;;;;;5018886;28;20251;-71
2023/10/18 08:49:32;;;;;;;26.75;17.55;;;;;;;;;;4997823;28;20187;-72
2023/10/18 08:52:08;;;;;;;25.40;16.85;;;;;;;;;;5025631;28;20183;-71
2023/10/18 08:54:39;;;;;;;25.23;16.77;;;;;;;;;;5017667;28;20288;-70
2023/10/18 08:57:10;;;;;;;25.30;16.27;;;;;;;;;;5004289;28;20179;-72
2023/10/18 08:59:42;;;;;;;22.40;15.75;;;;;;;;;;5019252;28;20720;-72
2023/10/18 09:02:12;;;;;;;22.33;15.10;;;;;;;;;;5009045;28;20182;-72
2023/10/18 09:04:44;;;;;;;20.60;14.77;;;;;;;;;;5014915;28;20361;-72
2023/10/18 09:07:22;;;;;;;22.93;14.70;;;;;;;;;;4997619;28;20194;-72
2023/10/18 09:09:55;;;;;;;20.65;14.48;;;;;;;;;;5011602;28;20279;-71
2023/10/18 09:12:32;;;;;;;21.55;14.52;;;;;;;;;;5012438;28;20234;-71
2023/10/18 09:14:59;;;;;;;20.50;13.95;;;;;;;;;;5020511;28;20285;-71
2023/10/18 09:17:24;;;;;;;19.30;14.20;;;;;;;;;;5008705;28;20606;-72
2023/10/18 09:19:53;;;;;;;17.93;12.93;;;;;;;;;;5004646;28;20187;-71
2023/10/18 09:22:19;;;;;;;21.00;14.13;;;;;;;;;;5012753;28;20180;-72
2023/10/18 09:24:45;;;;;;;18.57;13.60;;;;;;;;;;4963264;28;20198;-72
2023/10/18 09:27:14;;;;;;;20.67;13.07;;;;;;;;;;5010612;28;20638;-72
2023/10/18 09:29:40;;;;;;;19.88;13.00;;;;;;;;;;5008356;28;20190;-72
2023/10/18 09:32:12;;;;;;;18.98;12.98;;;;;;;;;;4993012;28;20545;-72
2023/10/18 09:34:38;;;;;;;19.17;12.43;;;;;;;;;;4971894;28;20201;-72
2023/10/18 09:37:10;;;;;;;15.10;12.02;;;;;;;;;;4990852;28;20191;-72
2023/10/18 09:39:42;;;;;;;15.65;11.70;;;;;;;;;;5002782;28;20187;-72
2023/10/18 09:42:17;;;;;;;17.73;12.23;;;;;;;;;;5020813;28;20185;-72
2023/10/18 09:44:43;;;;;;;18.20;12.10;;;;;;;;;;5004477;28;20231;-72
2023/10/18 09:47:09;;;;;;;20.60;11.68;;;;;;;;;;5008824;28;20712;-72
2023/10/18 09:49:38;;;;;;;16.70;11.75;;;;;;;;;;4979264;28;20184;-72
2023/10/18 09:52:07;;;;;;;18.67;12.57;;;;;;;;;;5004066;28;20698;-72
2023/10/18 09:54:36;;;;;;;17.35;11.75;;;;;;;;;;4997848;28;20234;-72
2023/10/18 09:57:02;;;;;;;18.65;11.75;;;;;;;;;;5019822;28;20197;-72
2023/10/18 09:59:32;;;;;;;15.07;11.02;;;;;;;;;;5008199;28;20225;-72
2023/10/18 10:02:07;;;;;;;16.38;11.32;;;;;;;;;;5010129;28;20191;-72
2023/10/18 10:04:35;;;;;;;16.85;10.80;;;;;;;;;;4993570;28;20736;-72
2023/10/18 10:09:47;;;;;;;16.52;11.10;;;;;;;;;;5018902;28;20185;-72
2023/10/18 10:12:15;;;;;;;14.57;10.77;;;;;;;;;;5022035;28;20560;-72
2023/10/18 10:14:41;;;;;;;15.60;10.95;;;;;;;;;;5006976;28;20211;-73
2023/10/18 10:17:17;;;;;;;14.30;10.45;;;;;;;;;;5009953;28;20194;-73
2023/10/18 10:19:48;;;;;;;13.57;9.85;;;;;;;;;;4997665;28;20191;-73
2023/10/18 10:22:17;;;;;;;16.92;10.32;;;;;;;;;;5012173;28;20191;-72
2023/10/18 10:24:43;;;;;;;12.00;9.43;;;;;;;;;;4986145;28;20203;-71
2023/10/18 10:27:27;;;;;;;14.57;9.52;;;;;;;;;;5007333;28;20187;-73
2023/10/18 10:32:54;;;;;;;15.77;9.43;;;;;;;;;;4991376;28;20572;-73
2023/10/18 10:35:25;;;;;;;13.38;9.23;;;;;;;;;;5001536;28;20201;-73
2023/10/18 10:37:51;;;;;;;11.68;8.88;;;;;;;;;;5012278;28;20275;-70
2023/10/18 10:43:01;;;;;;;11.98;8.52;;;;;;;;;;5008826;28;20253;-72
2023/10/18 10:45:43;;;;;;;11.55;8.60;;;;;;;;;;4993146;28;20201;-72
2023/10/18 10:48:17;;;;;;;13.48;8.20;;;;;;;;;;5011400;28;20190;-72
2023/10/18 10:50:50;;;;;;;10.15;8.05;;;;;;;;;;4986667;28;20210;-71
2023/10/18 10:53:54;;;;;;;11.57;7.90;;;;;;;;;;5008516;28;20316;-72
2023/10/18 10:56:28;;;;;;;12.20;8.40;;;;;;;;;;5009848;28;20284;-72
2023/10/18 10:59:04;;;;;;;15.45;8.55;;;;;;;;;;5007086;28;20233;-73
2023/10/18 11:04:25;;;;;;;10.27;7.65;;;;;;;;;;4994170;28;20183;-72
2023/10/18 11:07:13;;;;;;;10.73;8.02;;;;;;;;;;5009503;28;20214;-72
2023/10/18 11:09:42;;;;;;;10.95;7.80;;;;;;;;;;4996071;28;20607;-71
2023/10/18 11:12:20;;;;;;;10.40;7.43;;;;;;;;;;4971246;28;20740;-72
2023/10/18 11:14:53;;;;;;;9.57;7.55;;;;;;;;;;4992478;28;20528;-72
2023/10/18 11:17:19;;;;;;;8.88;7.18;;;;;;;;;;5006371;28;20308;-73
2023/10/18 11:19:59;;;;;;;9.88;7.28;;;;;;;;;;4972373;28;20180;-72
2023/10/18 11:22:29;;;;;;;11.95;7.75;;;;;;;;;;4997305;28;20194;-73
2023/10/18 11:24:55;;;;;;;9.38;6.97;;;;;;;;;;4994114;28;20174;-73
2023/10/18 11:27:23;;;;;;;7.75;6.55;;;;;;;;;;5003991;28;20321;-73
2023/10/18 11:29:56;;;;;;;11.40;7.53;;;;;;;;;;5012856;28;20179;-72
2023/10/18 11:32:28;;;;;;;10.93;7.00;;;;;;;;;;4979636;28;20194;-72
2023/10/18 11:37:52;;;;;;;8.15;7.18;;;;;;;;;;4983426;28;20210;-72
2023/10/18 11:40:29;;;;;;;11.93;7.00;;;;;;;;;;4997254;28;20585;-73
2023/10/18 11:43:04;;;;;;;11.52;6.82;;;;;;;;;;4996176;28;20260;-71
2023/10/18 11:45:30;;;;;;;17.25;6.30;;;;;;;;;;5010959;28;20218;-73
2023/10/18 11:47:55;;;;;;;10.70;6.80;;;;;;;;;;4996820;28;20198;-72
2023/10/18 11:50:23;;;;;;;7.95;6.32;;;;;;;;;;5025946;28;20186;-71
2023/10/18 11:52:51;;;;;;;8.07;6.18;;;;;;;;;;5013665;28;20183;-70
2023/10/18 11:55:17;;;;;;;8.48;6.57;;;;;;;;;;5009499;28;20183;-71
2023/10/18 11:57:46;;;;;;;10.48;6.30;;;;;;;;;;5018264;28;20195;-71
2023/10/18 12:02:51;;;;;;;9.05;6.10;;;;;;;;;;5013625;28;20206;-70
2023/10/18 12:05:17;;;;;;;9.38;6.18;;;;;;;;;;5028273;28;20221;-71
2023/10/18 12:07:46;;;;;;;7.85;6.10;;;;;;;;;;5004285;28;20588;-71
2023/10/18 12:10:25;;;;;;;10.63;6.53;;;;;;;;;;5023910;28;20527;-70
2023/10/18 12:12:51;;;;;;;9.13;6.47;;;;;;;;;;5022143;28;20218;-71
2023/10/18 12:15:17;;;;;;;9.85;5.65;;;;;;;;;;5012188;28;20184;-72
2023/10/18 12:17:42;;;;;;;10.45;6.47;;;;;;;;;;5015698;28;20610;-72
2023/10/18 12:20:10;;;;;;;7.55;6.07;;;;;;;;;;4996127;28;20658;-72
2023/10/18 12:22:36;;;;;;;8.20;6.10;;;;;;;;;;5009747;28;20646;-73
2023/10/18 12:25:02;;;;;;;8.57;5.95;;;;;;;;;;4994752;28;20175;-73
2023/10/18 12:27:34;;;;;;;9.65;6.65;;;;;;;;;;5010465;28;20187;-73
2023/10/18 12:30:09;;;;;;;9.50;6.10;;;;;;;;;;5012141;28;20183;-73
2023/10/18 12:32:42;;;;;;;7.70;6.55;;;;;;;;;;5012933;28;20194;-73
2023/10/18 12:35:15;;;;;;;9.43;6.50;;;;;;;;;;5012699;28;20707;-72
2023/10/18 12:37:40;;;;;;;8.18;6.82;;;;;;;;;;5011827;28;20203;-72
2023/10/18 12:40:27;;;;;;;9.38;6.28;;;;;;;;;;4984206;28;20248;-72
2023/10/18 12:42:57;;;;;;;8.70;5.45;;;;;;;;;;5011298;28;20682;-72
2023/10/18 12:45:22;;;;;;;9.00;5.95;;;;;;;;;;5007375;28;20209;-72
2023/10/18 12:47:51;;;;;;;9.93;6.25;;;;;;;;;;5012074;28;20607;-74
2023/10/18 12:50:18;;;;;;;9.05;5.60;;;;;;;;;;5012022;28;20190;-71
2023/10/18 12:52:44;;;;;;;7.45;5.38;;;;;;;;;;5017922;28;20258;-72
2023/10/18 12:55:57;;;;;;;7.65;5.60;;;;;;;;;;5016003;28;20747;-72
2023/10/18 12:57:56;;;;;;;10.15;6.18;;;;;;;;;;4999707;28;20202;-72
2023/10/18 13:00:25;;;;;;;7.65;6.13;;;;;;;;;;5009523;28;20276;-73
2023/10/18 13:05:40;;;;;;;6.70;5.70;;;;;;;;;;4993063;28;20555;-73
2023/10/18 13:08:26;;;;;;;10.23;5.50;;;;;;;;;;5022791;28;20194;-72
2023/10/18 13:13:32;;;;;;;7.95;5.80;;;;;;;;;;5019136;28;20206;-73
2023/10/18 13:15:58;;;;;;;6.53;5.25;;;;;;;;;;5008965;28;20187;-72
2023/10/18 13:18:26;;;;;;;7.70;5.75;;;;;;;;;;5015860;28;20188;-72
2023/10/18 13:20:54;;;;;;;9.35;5.20;;;;;;;;;;5015206;28;20202;-72
2023/10/18 13:23:21;;;;;;;7.20;5.50;;;;;;;;;;5012265;28;20229;-72
2023/10/18 13:25:51;;;;;;;10.27;5.63;;;;;;;;;;4989994;28;20298;-73
2023/10/18 13:28:33;;;;;;;10.30;5.38;;;;;;;;;;5011744;28;20194;-73
2023/10/18 13:31:04;;;;;;;10.20;5.63;;;;;;;;;;4988964;28;20235;-72
2023/10/18 13:33:31;;;;;;;7.00;5.40;;;;;;;;;;5000859;28;20198;-73
2023/10/18 13:35:56;;;;;;;8.45;5.10;;;;;;;;;;5000994;28;20186;-73
2023/10/18 13:38:23;;;;;;;9.15;5.57;;;;;;;;;;5010897;28;20202;-72
2023/10/18 13:40:49;;;;;;;9.32;5.07;;;;;;;;;;4988801;28;20191;-73
2023/10/18 13:43:17;;;;;;;8.02;5.03;;;;;;;;;;5019721;28;20322;-72
2023/10/18 13:45:45;;;;;;;6.88;4.82;;;;;;;;;;5014157;28;20187;-72
2023/10/18 13:48:11;;;;;;;6.32;5.05;;;;;;;;;;5013144;28;20709;-72
2023/10/18 13:50:38;;;;;;;6.57;5.03;;;;;;;;;;4983429;28;20190;-73
2023/10/18 13:53:04;;;;;;;7.00;4.70;;;;;;;;;;4988126;28;20189;-73
2023/10/18 13:55:30;;;;;;;8.23;4.68;;;;;;;;;;5007420;28;20273;-73
2023/10/18 13:57:57;;;;;;;6.45;4.95;;;;;;;;;;4993575;28;20221;-73
2023/10/18 14:00:22;;;;;;;9.88;4.47;;;;;;;;;;4992704;28;20230;-72
2023/10/18 14:02:48;;;;;;;7.07;4.80;;;;;;;;;;4991858;28;20213;-72
2023/10/18 14:05:13;;;;;;;7.53;4.90;;;;;;;;;;5008071;28;20593;-72
2023/10/18 14:07:39;;;;;;;10.70;5.10;;;;;;;;;;5007697;28;20209;-72
2023/10/18 14:10:19;;;;;;;6.05;4.93;;;;;;;;;;5011066;28;20202;-71
2023/10/18 14:12:45;;;;;;;6.78;5.07;;;;;;;;;;5011583;28;20268;-71
2023/10/18 14:15:16;;;;;;;8.63;5.70;;;;;;;;;;5023886;28;20272;-72
2023/10/18 14:17:44;;;;;;;6.95;5.28;;;;;;;;;;5021736;28;20226;-71
2023/10/18 14:20:10;;;;;;;6.75;5.38;;;;;;;;;;5003784;28;20184;-72
2023/10/18 14:22:38;;;;;;;9.65;5.80;;;;;;;;;;5009371;28;20802;-71
2023/10/18 14:25:07;;;;;;;8.50;5.40;;;;;;;;;;5009977;28;20779;-71
2023/10/18 14:27:35;;;;;;;8.35;5.65;;;;;;;;;;5006810;28;20201;-71
2023/10/18 14:30:01;;;;;;;8.48;5.25;;;;;;;;;;5001655;28;20943;-70
2023/10/18 14:32:26;;;;;;;8.00;5.68;;;;;;;;;;4993942;28;20192;-71
2023/10/18 14:34:51;;;;;;;7.60;5.05;;;;;;;;;;5007797;28;20215;-72
2023/10/18 14:37:22;;;;;;;8.20;5.35;;;;;;;;;;4988620;28;20691;-72
2023/10/18 14:39:48;;;;;;;12.45;5.82;;;;;;;;;;4991054;28;20187;-71
2023/10/18 14:42:14;;;;;;;9.00;5.57;;;;;;;;;;5020193;28;20221;-71
2023/10/18 14:44:39;;;;;;;7.18;5.63;;;;;;;;;;4990367;28;20667;-71
2023/10/18 14:47:06;;;;;;;8.30;4.70;;;;;;;;;;5004008;28;20201;-71
2023/10/18 14:49:32;;;;;;;9.70;5.47;;;;;;;;;;5002389;28;20191;-71
2023/10/18 14:51:57;;;;;;;7.90;5.20;;;;;;;;;;4991402;28;20192;-71
2023/10/18 14:54:23;;;;;;;7.70;4.88;;;;;;;;;;5010753;28;20629;-71
2023/10/18 14:56:48;;;;;;;7.00;5.20;;;;;;;;;;5014882;28;20269;-72
2023/10/18 14:59:14;;;;;;;9.13;5.43;;;;;;;;;;5025881;28;20253;-72
2023/10/18 15:01:39;;;;;;;8.25;5.25;;;;;;;;;;5020751;28;20197;-71
2023/10/18 15:04:07;;;;;;;7.07;4.25;;;;;;;;;;5010396;28;20257;-73
2023/10/18 15:06:37;;;;;;;6.68;4.53;;;;;;;;;;5000211;28;20327;-72
2023/10/18 15:09:03;;;;;;;8.05;4.93;;;;;;;;;;5010872;28;20194;-71
2023/10/18 15:11:29;;;;;;;5.85;4.22;;;;;;;;;;5011039;28;20206;-72
2023/10/18 15:13:54;;;;;;;5.97;4.47;;;;;;;;;;5011020;28;20206;-71
2023/10/18 15:16:20;;;;;;;7.85;4.53;;;;;;;;;;5010837;28;20831;-71
2023/10/18 15:18:46;;;;;;;7.50;4.20;;;;;;;;;;4979261;28;20551;-72
2023/10/18 15:21:13;;;;;;;6.10;4.20;;;;;;;;;;5001384;28;20179;-69
2023/10/18 15:23:38;;;;;;;7.70;4.03;;;;;;;;;;5013611;28;20186;-72